sensor_id;sensor_type;location;lat;lon;timestamp;pressure;altitude;pressure_sealevel;temperature;humidity
6024;BME280;3040;42.654;23.296;2023-05-02T00:00:25;94539.25;;;12.61;71.87
6024;BME280;3040;42.654;23.296;2023-05-02T00:02:54;94546.59;;;12.64;72.09
6024;BME280;3040;42.654;23.296;2023-05-02T00:05:21;94537.81;;;12.80;71.55
6024;BME280;3040;42.654;23.296;2023-05-02T00:07:48;94534.13;;;12.84;71.09
6024;BME280;3040;42.654;23.296;2023-05-02T00:10:15;94532.22;;;12.85;71.51
6024;BME280;3040;42.654;23.296;2023-05-02T00:12:42;94545.94;;;12.83;71.79
6024;BME280;3040;42.654;23.296;2023-05-02T00:15:09;94542.56;;;12.86;71.54
6024;BME280;3040;42.654;23.296;2023-05-02T00:17:36;94538.44;;;13.04;71.18
6024;BME280;3040;42.654;23.296;2023-05-02T00:20:08;94540.59;;;12.99;71.13
6024;BME280;3040;42.654;23.296;2023-05-02T00:22:35;94544.38;;;12.98;71.57
6024;BME280;3040;42.654;23.296;2023-05-02T00:25:02;94553.16;;;12.83;72.60
6024;BME280;3040;42.654;23.296;2023-05-02T00:27:29;94545.69;;;12.60;72.87
6024;BME280;3040;42.654;23.296;2023-05-02T00:29:57;94553.84;;;12.80;72.42
6024;BME280;3040;42.654;23.296;2023-05-02T00:32:25;94555.78;;;12.67;72.68
6024;BME280;3040;42.654;23.296;2023-05-02T00:34:52;94511.19;;;12.52;72.79
6024;BME280;3040;42.654;23.296;2023-05-02T00:37:20;94561.84;;;12.80;72.92
6024;BME280;3040;42.654;23.296;2023-05-02T00:39:51;94566.34;;;12.91;72.31
6024;BME280;3040;42.654;23.296;2023-05-02T00:42:18;94553.56;;;12.85;71.85
6024;BME280;3040;42.654;23.296;2023-05-02T00:44:44;94567.88;;;12.92;71.98
6024;BME280;3040;42.654;23.296;2023-05-02T00:47:11;94571.19;;;13.01;71.65
6024;BME280;3040;42.654;23.296;2023-05-02T00:49:39;94568.16;;;13.03;71.94
6024;BME280;3040;42.654;23.296;2023-05-02T00:52:07;94557.66;;;12.94;71.83
6024;BME280;3040;42.654;23.296;2023-05-02T00:54:36;94567.72;;;13.01;71.61
6024;BME280;3040;42.654;23.296;2023-05-02T00:57:03;94572.56;;;13.11;71.50
6024;BME280;3040;42.654;23.296;2023-05-02T00:59:31;94565.22;;;13.08;71.31
6024;BME280;3040;42.654;23.296;2023-05-02T01:02:06;94561.44;;;13.09;71.14
6024;BME280;3040;42.654;23.296;2023-05-02T01:04:41;94571.72;;;13.23;70.97
6024;BME280;3040;42.654;23.296;2023-05-02T01:07:34;94559.19;;;13.11;70.82
6024;BME280;3040;42.654;23.296;2023-05-02T01:10:17;94560.25;;;13.22;71.60
6024;BME280;3040;42.654;23.296;2023-05-02T01:12:53;94553.56;;;13.13;71.30
6024;BME280;3040;42.654;23.296;2023-05-02T01:15:24;94551.13;;;13.23;71.46
6024;BME280;3040;42.654;23.296;2023-05-02T01:17:52;94555.25;;;13.36;71.00
6024;BME280;3040;42.654;23.296;2023-05-02T01:20:22;94294.94;;;11.66;71.32
6024;BME280;3040;42.654;23.296;2023-05-02T01:22:53;94553.28;;;13.18;72.35
6024;BME280;3040;42.654;23.296;2023-05-02T01:25:28;94505.88;;;12.99;71.71
6024;BME280;3040;42.654;23.296;2023-05-02T01:28:04;94507.09;;;13.01;72.24
6024;BME280;3040;42.654;23.296;2023-05-02T01:30:40;94537.59;;;13.16;72.34
6024;BME280;3040;42.654;23.296;2023-05-02T01:33:10;94535.63;;;13.13;72.59
6024;BME280;3040;42.654;23.296;2023-05-02T01:35:37;94541.75;;;13.14;72.76
6024;BME280;3040;42.654;23.296;2023-05-02T01:38:05;94537.84;;;13.11;72.63
6024;BME280;3040;42.654;23.296;2023-05-02T01:40:33;94541.88;;;13.05;73.75
6024;BME280;3040;42.654;23.296;2023-05-02T01:43:02;94549.03;;;13.01;73.57
6024;BME280;3040;42.654;23.296;2023-05-02T01:45:33;94553.78;;;13.08;73.49
6024;BME280;3040;42.654;23.296;2023-05-02T01:48:05;94550.22;;;13.03;73.78
6024;BME280;3040;42.654;23.296;2023-05-02T01:50:33;94524.91;;;12.82;73.71
6024;BME280;3040;42.654;23.296;2023-05-02T01:53:02;94555.06;;;12.98;74.36
6024;BME280;3040;42.654;23.296;2023-05-02T01:55:30;94545.06;;;12.95;74.73
6024;BME280;3040;42.654;23.296;2023-05-02T01:58:00;94544.19;;;12.91;74.69
6024;BME280;3040;42.654;23.296;2023-05-02T02:00:28;94538.84;;;12.91;74.71
6024;BME280;3040;42.654;23.296;2023-05-02T02:02:56;94539.56;;;12.88;75.01
6024;BME280;3040;42.654;23.296;2023-05-02T02:05:26;94532.59;;;12.83;75.20
6024;BME280;3040;42.654;23.296;2023-05-02T02:07:53;94550.91;;;12.85;75.13
6024;BME280;3040;42.654;23.296;2023-05-02T02:10:21;94536.44;;;12.86;75.22
6024;BME280;3040;42.654;23.296;2023-05-02T02:12:52;94535.41;;;12.75;75.35
6024;BME280;3040;42.654;23.296;2023-05-02T02:15:24;94529.41;;;12.78;75.84
6024;BME280;3040;42.654;23.296;2023-05-02T02:17:57;94529.22;;;12.71;75.71
6024;BME280;3040;42.654;23.296;2023-05-02T02:20:28;94539.00;;;12.67;76.00
6024;BME280;3040;42.654;23.296;2023-05-02T02:22:57;94523.22;;;12.46;75.99
6024;BME280;3040;42.654;23.296;2023-05-02T02:25:25;94520.97;;;12.48;76.34
6024;BME280;3040;42.654;23.296;2023-05-02T02:27:52;94362.41;;;11.42;76.35
6024;BME280;3040;42.654;23.296;2023-05-02T02:30:19;94538.66;;;12.52;76.55
6024;BME280;3040;42.654;23.296;2023-05-02T02:32:46;94357.69;;;11.24;76.15
6024;BME280;3040;42.654;23.296;2023-05-02T02:35:13;94499.63;;;12.32;76.34
6024;BME280;3040;42.654;23.296;2023-05-02T02:37:49;94537.34;;;12.46;76.16
6024;BME280;3040;42.654;23.296;2023-05-02T02:40:21;94540.00;;;12.46;76.50
6024;BME280;3040;42.654;23.296;2023-05-02T02:42:58;94554.66;;;12.52;76.79
6024;BME280;3040;42.654;23.296;2023-05-02T02:45:33;94505.69;;;12.17;76.98
6024;BME280;3040;42.654;23.296;2023-05-02T02:48:10;94556.69;;;12.43;76.54
6024;BME280;3040;42.654;23.296;2023-05-02T02:50:50;94549.31;;;12.52;76.83
6024;BME280;3040;42.654;23.296;2023-05-02T02:53:26;94567.56;;;12.50;76.16
6024;BME280;3040;42.654;23.296;2023-05-02T02:55:59;94560.00;;;12.52;76.04
6024;BME280;3040;42.654;23.296;2023-05-02T02:58:33;94569.41;;;12.34;77.35
6024;BME280;3040;42.654;23.296;2023-05-02T03:01:08;94575.81;;;12.17;77.14
6024;BME280;3040;42.654;23.296;2023-05-02T03:03:38;94585.03;;;12.08;77.66
6024;BME280;3040;42.654;23.296;2023-05-02T03:06:07;94556.78;;;12.19;77.32
6024;BME280;3040;42.654;23.296;2023-05-02T03:08:42;94574.94;;;12.41;76.52
6024;BME280;3040;42.654;23.296;2023-05-02T03:11:09;94594.56;;;12.77;75.12
6024;BME280;3040;42.654;23.296;2023-05-02T03:13:36;94597.09;;;13.01;73.86
6024;BME280;3040;42.654;23.296;2023-05-02T03:16:29;94607.75;;;13.13;72.91
6024;BME280;3040;42.654;23.296;2023-05-02T03:18:57;94599.72;;;13.29;71.95
6024;BME280;3040;42.654;23.296;2023-05-02T03:21:24;94607.31;;;13.42;71.55
6024;BME280;3040;42.654;23.296;2023-05-02T03:23:52;94601.44;;;13.53;70.64
6024;BME280;3040;42.654;23.296;2023-05-02T03:26:19;94605.47;;;13.62;70.18
6024;BME280;3040;42.654;23.296;2023-05-02T03:28:46;94604.00;;;13.65;69.87
6024;BME280;3040;42.654;23.296;2023-05-02T03:31:13;94609.53;;;13.40;70.47
6024;BME280;3040;42.654;23.296;2023-05-02T03:33:40;94458.94;;;12.67;69.96
6024;BME280;3040;42.654;23.296;2023-05-02T03:36:07;94604.97;;;13.57;69.76
6024;BME280;3040;42.654;23.296;2023-05-02T03:38:34;94604.28;;;13.60;69.95
6024;BME280;3040;42.654;23.296;2023-05-02T03:41:02;94542.66;;;12.90;71.17
6024;BME280;3040;42.654;23.296;2023-05-02T03:43:30;94601.88;;;13.39;70.58
6024;BME280;3040;42.654;23.296;2023-05-02T03:46:02;94452.59;;;12.55;70.54
6024;BME280;3040;42.654;23.296;2023-05-02T03:48:29;94591.59;;;13.57;69.86
6024;BME280;3040;42.654;23.296;2023-05-02T03:50:56;94606.88;;;13.40;70.88
6024;BME280;3040;42.654;23.296;2023-05-02T03:53:23;94600.63;;;13.05;72.11
6024;BME280;3040;42.654;23.296;2023-05-02T03:55:50;94599.31;;;12.99;73.24
6024;BME280;3040;42.654;23.296;2023-05-02T03:58:18;94549.59;;;12.63;72.96
6024;BME280;3040;42.654;23.296;2023-05-02T04:00:45;94610.84;;;12.87;74.40
6024;BME280;3040;42.654;23.296;2023-05-02T04:03:12;94597.97;;;12.61;75.30
6024;BME280;3040;42.654;23.296;2023-05-02T04:05:39;94603.16;;;12.70;75.26
6024;BME280;3040;42.654;23.296;2023-05-02T04:08:05;94598.28;;;12.60;76.19
6024;BME280;3040;42.654;23.296;2023-05-02T04:10:32;94603.25;;;12.74;75.19
6024;BME280;3040;42.654;23.296;2023-05-02T04:12:59;94586.59;;;12.37;76.47
6024;BME280;3040;42.654;23.296;2023-05-02T04:15:28;94605.53;;;12.59;74.96
6024;BME280;3040;42.654;23.296;2023-05-02T04:17:57;94593.13;;;12.51;75.59
6024;BME280;3040;42.654;23.296;2023-05-02T04:20:24;94373.91;;;11.19;74.94
6024;BME280;3040;42.654;23.296;2023-05-02T04:22:51;94588.91;;;12.50;75.20
6024;BME280;3040;42.654;23.296;2023-05-02T04:25:18;94592.22;;;12.59;75.47
6024;BME280;3040;42.654;23.296;2023-05-02T04:27:45;94594.72;;;12.68;73.99
6024;BME280;3040;42.654;23.296;2023-05-02T04:30:12;94595.72;;;12.63;75.03
6024;BME280;3040;42.654;23.296;2023-05-02T04:32:40;94597.72;;;12.67;74.42
6024;BME280;3040;42.654;23.296;2023-05-02T04:35:08;94593.94;;;12.68;74.42
6024;BME280;3040;42.654;23.296;2023-05-02T04:37:35;94592.56;;;12.74;74.27
6024;BME280;3040;42.654;23.296;2023-05-02T04:40:02;94597.72;;;12.67;74.10
6024;BME280;3040;42.654;23.296;2023-05-02T04:42:29;94594.13;;;12.75;74.31
6024;BME280;3040;42.654;23.296;2023-05-02T04:44:56;94593.81;;;12.92;73.29
6024;BME280;3040;42.654;23.296;2023-05-02T04:47:23;94594.75;;;12.99;73.26
6024;BME280;3040;42.654;23.296;2023-05-02T04:49:51;94604.66;;;12.99;73.15
6024;BME280;3040;42.654;23.296;2023-05-02T04:52:18;94481.47;;;12.22;72.28
6024;BME280;3040;42.654;23.296;2023-05-02T04:54:44;94596.69;;;13.15;72.26
6024;BME280;3040;42.654;23.296;2023-05-02T04:57:11;94601.63;;;13.28;73.28
6024;BME280;3040;42.654;23.296;2023-05-02T04:59:38;94594.72;;;13.27;71.94
6024;BME280;3040;42.654;23.296;2023-05-02T05:02:05;94604.72;;;13.30;70.74
6024;BME280;3040;42.654;23.296;2023-05-02T05:04:32;94584.91;;;13.31;71.48
6024;BME280;3040;42.654;23.296;2023-05-02T05:07:00;94597.81;;;13.29;71.24
6024;BME280;3040;42.654;23.296;2023-05-02T05:09:27;94593.09;;;13.23;70.45
6024;BME280;3040;42.654;23.296;2023-05-02T05:11:54;94596.78;;;13.18;71.04
6024;BME280;3040;42.654;23.296;2023-05-02T05:14:21;94557.91;;;13.05;70.87
6024;BME280;3040;42.654;23.296;2023-05-02T05:16:48;94595.31;;;13.21;71.04
6024;BME280;3040;42.654;23.296;2023-05-02T05:19:15;94591.78;;;13.32;70.48
6024;BME280;3040;42.654;23.296;2023-05-02T05:21:42;94605.69;;;13.38;70.36
6024;BME280;3040;42.654;23.296;2023-05-02T05:24:10;94594.47;;;13.48;70.76
6024;BME280;3040;42.654;23.296;2023-05-02T05:26:37;94609.13;;;13.54;69.07
6024;BME280;3040;42.654;23.296;2023-05-02T05:29:04;94609.28;;;13.45;69.63
6024;BME280;3040;42.654;23.296;2023-05-02T05:31:32;94614.81;;;13.53;69.16
6024;BME280;3040;42.654;23.296;2023-05-02T05:33:58;94518.28;;;13.07;69.78
6024;BME280;3040;42.654;23.296;2023-05-02T05:36:25;94611.69;;;13.66;69.55
6024;BME280;3040;42.654;23.296;2023-05-02T05:38:53;94614.34;;;13.82;69.68
6024;BME280;3040;42.654;23.296;2023-05-02T05:41:22;94604.06;;;13.84;68.65
6024;BME280;3040;42.654;23.296;2023-05-02T05:43:49;94623.78;;;13.95;68.57
6024;BME280;3040;42.654;23.296;2023-05-02T05:46:16;94613.50;;;14.13;68.00
6024;BME280;3040;42.654;23.296;2023-05-02T05:48:43;94621.84;;;14.11;68.11
6024;BME280;3040;42.654;23.296;2023-05-02T05:51:10;94620.16;;;14.03;67.45
6024;BME280;3040;42.654;23.296;2023-05-02T05:53:36;94613.00;;;14.07;67.37
6024;BME280;3040;42.654;23.296;2023-05-02T05:56:10;94619.78;;;14.20;67.11
6024;BME280;3040;42.654;23.296;2023-05-02T05:58:39;94614.47;;;14.24;67.79
6024;BME280;3040;42.654;23.296;2023-05-02T06:01:07;94626.09;;;14.12;67.34
6024;BME280;3040;42.654;23.296;2023-05-02T06:03:34;94618.03;;;14.28;66.92
6024;BME280;3040;42.654;23.296;2023-05-02T06:06:00;94628.97;;;14.39;67.00
6024;BME280;3040;42.654;23.296;2023-05-02T06:08:27;94629.25;;;14.53;66.74
6024;BME280;3040;42.654;23.296;2023-05-02T06:10:54;94624.53;;;14.65;65.69
6024;BME280;3040;42.654;23.296;2023-05-02T06:13:21;94639.94;;;14.53;64.49
6024;BME280;3040;42.654;23.296;2023-05-02T06:15:49;94628.13;;;14.54;66.14
6024;BME280;3040;42.654;23.296;2023-05-02T06:18:16;94628.84;;;14.70;65.44
6024;BME280;3040;42.654;23.296;2023-05-02T06:20:42;94633.78;;;14.87;64.60
6024;BME280;3040;42.654;23.296;2023-05-02T06:23:09;94635.84;;;14.97;62.73
6024;BME280;3040;42.654;23.296;2023-05-02T06:25:37;94636.81;;;15.08;60.95
6024;BME280;3040;42.654;23.296;2023-05-02T06:28:03;94642.50;;;15.26;61.39
6024;BME280;3040;42.654;23.296;2023-05-02T06:30:31;94638.47;;;15.36;60.81
6024;BME280;3040;42.654;23.296;2023-05-02T06:32:59;94541.34;;;14.74;59.50
6024;BME280;3040;42.654;23.296;2023-05-02T06:35:26;94632.78;;;15.60;60.67
6024;BME280;3040;42.654;23.296;2023-05-02T06:37:52;94634.19;;;15.77;58.91
6024;BME280;3040;42.654;23.296;2023-05-02T06:40:19;94604.09;;;15.64;59.24
6024;BME280;3040;42.654;23.296;2023-05-02T06:42:46;94631.81;;;15.72;58.72
6024;BME280;3040;42.654;23.296;2023-05-02T06:45:13;94638.88;;;15.83;58.60
6024;BME280;3040;42.654;23.296;2023-05-02T06:47:40;94624.22;;;16.04;57.36
6024;BME280;3040;42.654;23.296;2023-05-02T06:50:09;94591.44;;;15.87;57.19
6024;BME280;3040;42.654;23.296;2023-05-02T06:52:36;94632.69;;;16.32;58.14
6024;BME280;3040;42.654;23.296;2023-05-02T06:55:04;94642.88;;;16.49;58.68
6024;BME280;3040;42.654;23.296;2023-05-02T06:57:31;94649.06;;;16.53;56.18
6024;BME280;3040;42.654;23.296;2023-05-02T06:59:58;94644.59;;;16.61;55.56
6024;BME280;3040;42.654;23.296;2023-05-02T07:02:24;94638.97;;;16.43;54.93
6024;BME280;3040;42.654;23.296;2023-05-02T07:04:51;94643.31;;;16.51;55.88
6024;BME280;3040;42.654;23.296;2023-05-02T07:07:19;94462.72;;;15.61;54.59
6024;BME280;3040;42.654;23.296;2023-05-02T07:09:46;94642.16;;;16.82;54.47
6024;BME280;3040;42.654;23.296;2023-05-02T07:12:13;94639.78;;;16.74;53.69
6024;BME280;3040;42.654;23.296;2023-05-02T07:14:40;94650.38;;;16.93;54.00
6024;BME280;3040;42.654;23.296;2023-05-02T07:17:07;94649.34;;;17.04;52.64
6024;BME280;3040;42.654;23.296;2023-05-02T07:19:34;94652.63;;;16.91;52.45
6024;BME280;3040;42.654;23.296;2023-05-02T07:22:01;94645.97;;;17.11;52.89
6024;BME280;3040;42.654;23.296;2023-05-02T07:24:29;94652.81;;;17.45;51.99
6024;BME280;3040;42.654;23.296;2023-05-02T07:26:55;94650.13;;;17.45;50.61
6024;BME280;3040;42.654;23.296;2023-05-02T07:29:22;94625.16;;;17.04;50.33
6024;BME280;3040;42.654;23.296;2023-05-02T07:31:49;94655.94;;;17.11;50.82
6024;BME280;3040;42.654;23.296;2023-05-02T07:34:16;94641.53;;;17.29;50.04
6024;BME280;3040;42.654;23.296;2023-05-02T07:36:42;94651.75;;;17.54;50.08
6024;BME280;3040;42.654;23.296;2023-05-02T07:39:09;94648.19;;;17.86;49.17
6024;BME280;3040;42.654;23.296;2023-05-02T07:41:37;94655.56;;;17.97;48.70
6024;BME280;3040;42.654;23.296;2023-05-02T07:44:04;94658.88;;;17.76;48.12
6024;BME280;3040;42.654;23.296;2023-05-02T07:46:32;94665.91;;;17.91;48.92
6024;BME280;3040;42.654;23.296;2023-05-02T07:48:59;94505.88;;;17.20;47.88
6024;BME280;3040;42.654;23.296;2023-05-02T07:51:26;94667.41;;;18.40;48.34
6024;BME280;3040;42.654;23.296;2023-05-02T07:53:53;94655.63;;;18.55;47.57
6024;BME280;3040;42.654;23.296;2023-05-02T07:56:22;94656.44;;;18.69;46.70
6024;BME280;3040;42.654;23.296;2023-05-02T07:58:51;94656.06;;;18.71;45.97
6024;BME280;3040;42.654;23.296;2023-05-02T08:01:18;94618.28;;;18.57;46.30
6024;BME280;3040;42.654;23.296;2023-05-02T08:03:45;94636.13;;;18.93;46.55
6024;BME280;3040;42.654;23.296;2023-05-02T08:06:12;94651.59;;;19.03;47.21
6024;BME280;3040;42.654;23.296;2023-05-02T08:08:38;94656.59;;;19.08;45.10
6024;BME280;3040;42.654;23.296;2023-05-02T08:11:05;94651.97;;;19.13;46.43
6024;BME280;3040;42.654;23.296;2023-05-02T08:13:32;94628.13;;;19.18;45.91
6024;BME280;3040;42.654;23.296;2023-05-02T08:16:00;94650.88;;;19.28;45.51
6024;BME280;3040;42.654;23.296;2023-05-02T08:18:27;94654.78;;;19.48;44.17
6024;BME280;3040;42.654;23.296;2023-05-02T08:20:54;94650.53;;;19.40;44.52
6024;BME280;3040;42.654;23.296;2023-05-02T08:23:21;94649.72;;;19.32;45.53
6024;BME280;3040;42.654;23.296;2023-05-02T08:25:47;94650.97;;;19.63;45.32
6024;BME280;3040;42.654;23.296;2023-05-02T08:28:14;94655.97;;;19.68;44.20
6024;BME280;3040;42.654;23.296;2023-05-02T08:30:41;94629.75;;;19.72;42.65
6024;BME280;3040;42.654;23.296;2023-05-02T08:33:10;94653.69;;;19.95;43.84
6024;BME280;3040;42.654;23.296;2023-05-02T08:35:37;94662.16;;;20.29;42.54
6024;BME280;3040;42.654;23.296;2023-05-02T08:38:04;94647.47;;;20.55;42.74
6024;BME280;3040;42.654;23.296;2023-05-02T08:40:34;94652.00;;;20.76;43.36
6024;BME280;3040;42.654;23.296;2023-05-02T08:43:02;94652.03;;;20.68;41.43
6024;BME280;3040;42.654;23.296;2023-05-02T08:45:30;94649.78;;;20.46;42.45
6024;BME280;3040;42.654;23.296;2023-05-02T08:48:05;94654.38;;;20.66;41.61
6024;BME280;3040;42.654;23.296;2023-05-02T08:50:36;94652.50;;;20.42;41.92
6024;BME280;3040;42.654;23.296;2023-05-02T08:53:03;94649.00;;;20.45;41.92
6024;BME280;3040;42.654;23.296;2023-05-02T08:55:31;94640.94;;;20.17;41.77
6024;BME280;3040;42.654;23.296;2023-05-02T08:57:58;94634.78;;;20.13;42.02
6024;BME280;3040;42.654;23.296;2023-05-02T09:00:26;94635.16;;;20.08;41.90
6024;BME280;3040;42.654;23.296;2023-05-02T09:03:03;94643.59;;;20.45;43.38
6024;BME280;3040;42.654;23.296;2023-05-02T09:05:37;94641.94;;;20.87;41.22
6024;BME280;3040;42.654;23.296;2023-05-02T09:08:05;94640.22;;;21.28;39.67
6024;BME280;3040;42.654;23.296;2023-05-02T09:10:33;94634.75;;;21.39;38.02
6024;BME280;3040;42.654;23.296;2023-05-02T09:13:32;94631.00;;;21.11;39.02
6024;BME280;3040;42.654;23.296;2023-05-02T09:16:00;94637.19;;;21.19;40.15
6024;BME280;3040;42.654;23.296;2023-05-02T09:18:29;94587.53;;;20.78;40.43
6024;BME280;3040;42.654;23.296;2023-05-02T09:20:59;94634.09;;;21.17;38.50
6024;BME280;3040;42.654;23.296;2023-05-02T09:23:37;94630.94;;;21.29;37.98
6024;BME280;3040;42.654;23.296;2023-05-02T09:26:18;94622.75;;;21.40;38.37
6024;BME280;3040;42.654;23.296;2023-05-02T09:28:46;94630.34;;;20.90;38.18
6024;BME280;3040;42.654;23.296;2023-05-02T09:31:14;94512.06;;;20.17;38.12
6024;BME280;3040;42.654;23.296;2023-05-02T09:33:42;94625.59;;;21.19;38.60
6024;BME280;3040;42.654;23.296;2023-05-02T09:36:12;94619.66;;;21.41;37.78
6024;BME280;3040;42.654;23.296;2023-05-02T09:38:40;94631.47;;;21.69;38.41
6024;BME280;3040;42.654;23.296;2023-05-02T09:41:07;94638.63;;;21.34;37.75
6024;BME280;3040;42.654;23.296;2023-05-02T09:43:35;94624.41;;;21.27;36.77
6024;BME280;3040;42.654;23.296;2023-05-02T09:46:04;94612.63;;;21.55;38.02
6024;BME280;3040;42.654;23.296;2023-05-02T09:48:32;94620.91;;;21.85;37.54
6024;BME280;3040;42.654;23.296;2023-05-02T09:50:59;94615.13;;;22.27;35.16
6024;BME280;3040;42.654;23.296;2023-05-02T09:53:28;94577.94;;;21.87;36.11
6024;BME280;3040;42.654;23.296;2023-05-02T09:56:02;94601.72;;;22.13;36.98
6024;BME280;3040;42.654;23.296;2023-05-02T09:58:30;94609.75;;;21.76;35.79
6024;BME280;3040;42.654;23.296;2023-05-02T10:00:57;94605.03;;;21.87;36.16
6024;BME280;3040;42.654;23.296;2023-05-02T10:03:26;94598.72;;;22.04;35.77
6024;BME280;3040;42.654;23.296;2023-05-02T10:05:53;94583.56;;;22.48;35.53
6024;BME280;3040;42.654;23.296;2023-05-02T10:08:24;94565.13;;;22.36;34.01
6024;BME280;3040;42.654;23.296;2023-05-02T10:10:54;94591.16;;;22.60;34.16
6024;BME280;3040;42.654;23.296;2023-05-02T10:13:24;94594.88;;;22.77;34.64
6024;BME280;3040;42.654;23.296;2023-05-02T10:15:58;94551.34;;;22.87;34.83
6024;BME280;3040;42.654;23.296;2023-05-02T10:18:27;94568.88;;;22.79;32.53
6024;BME280;3040;42.654;23.296;2023-05-02T10:20:58;94593.59;;;22.51;33.78
6024;BME280;3040;42.654;23.296;2023-05-02T10:23:28;94544.06;;;22.47;34.95
6024;BME280;3040;42.654;23.296;2023-05-02T10:25:57;94591.22;;;23.21;33.71
6024;BME280;3040;42.654;23.296;2023-05-02T10:28:25;94575.41;;;23.39;31.75
6024;BME280;3040;42.654;23.296;2023-05-02T10:30:53;94573.56;;;23.63;31.92
6024;BME280;3040;42.654;23.296;2023-05-02T10:33:21;94495.69;;;23.56;31.44
6024;BME280;3040;42.654;23.296;2023-05-02T10:35:48;94575.09;;;24.53;30.25
6024;BME280;3040;42.654;23.296;2023-05-02T10:38:16;94564.69;;;24.48;29.06
6024;BME280;3040;42.654;23.296;2023-05-02T10:40:50;94570.47;;;24.30;28.75
6024;BME280;3040;42.654;23.296;2023-05-02T10:43:23;94563.31;;;23.70;29.05
6024;BME280;3040;42.654;23.296;2023-05-02T10:45:52;94568.22;;;24.02;29.97
6024;BME280;3040;42.654;23.296;2023-05-02T10:48:21;94554.75;;;24.18;28.31
6024;BME280;3040;42.654;23.296;2023-05-02T10:50:50;94566.63;;;24.48;29.58
6024;BME280;3040;42.654;23.296;2023-05-02T10:53:25;94546.63;;;24.38;28.78
6024;BME280;3040;42.654;23.296;2023-05-02T10:56:08;94559.13;;;24.95;29.08
6024;BME280;3040;42.654;23.296;2023-05-02T10:58:37;94560.22;;;25.33;27.78
6024;BME280;3040;42.654;23.296;2023-05-02T11:01:34;94556.09;;;25.77;27.46
6024;BME280;3040;42.654;23.296;2023-05-02T11:04:05;94558.72;;;25.81;25.72
6024;BME280;3040;42.654;23.296;2023-05-02T11:06:33;94563.03;;;25.46;26.84
6024;BME280;3040;42.654;23.296;2023-05-02T11:09:31;94564.91;;;24.97;26.88
6024;BME280;3040;42.654;23.296;2023-05-02T11:12:01;94545.94;;;24.34;27.87
6024;BME280;3040;42.654;23.296;2023-05-02T11:14:47;94538.72;;;24.47;27.90
6024;BME280;3040;42.654;23.296;2023-05-02T11:17:15;94497.66;;;23.99;27.34
6024;BME280;3040;42.654;23.296;2023-05-02T11:22:50;94521.97;;;24.29;29.34
6024;BME280;3040;42.654;23.296;2023-05-02T11:25:34;94541.25;;;24.74;27.90
6024;BME280;3040;42.654;23.296;2023-05-02T11:28:03;94521.94;;;24.68;28.62
6024;BME280;3040;42.654;23.296;2023-05-02T11:30:39;94534.94;;;25.17;26.89
6024;BME280;3040;42.654;23.296;2023-05-02T11:33:15;94394.13;;;24.13;26.19
6024;BME280;3040;42.654;23.296;2023-05-02T11:35:43;94535.94;;;25.06;26.85
6024;BME280;3040;42.654;23.296;2023-05-02T11:38:13;94529.53;;;24.97;27.05
6024;BME280;3040;42.654;23.296;2023-05-02T11:40:49;94529.59;;;25.13;28.09
6024;BME280;3040;42.654;23.296;2023-05-02T11:43:17;94506.28;;;25.44;26.91
6024;BME280;3040;42.654;23.296;2023-05-02T11:45:46;94521.66;;;26.00;27.32
6024;BME280;3040;42.654;23.296;2023-05-02T11:48:15;94532.44;;;26.19;26.46
6024;BME280;3040;42.654;23.296;2023-05-02T11:50:43;94492.16;;;25.49;27.00
6024;BME280;3040;42.654;23.296;2023-05-02T11:53:11;94502.25;;;24.81;27.16
6024;BME280;3040;42.654;23.296;2023-05-02T11:55:44;94523.22;;;24.44;28.03
6024;BME280;3040;42.654;23.296;2023-05-02T11:58:13;94516.72;;;24.18;28.29
6024;BME280;3040;42.654;23.296;2023-05-02T12:00:41;94478.53;;;23.82;30.23
6024;BME280;3040;42.654;23.296;2023-05-02T12:03:20;94501.09;;;23.79;29.20
6024;BME280;3040;42.654;23.296;2023-05-02T12:05:47;94502.84;;;23.89;29.03
6024;BME280;3040;42.654;23.296;2023-05-02T12:08:18;94503.25;;;23.88;28.55
6024;BME280;3040;42.654;23.296;2023-05-02T12:10:46;94469.16;;;23.87;29.67
6024;BME280;3040;42.654;23.296;2023-05-02T12:13:13;94494.00;;;23.85;30.26
6024;BME280;3040;42.654;23.296;2023-05-02T12:15:40;94504.16;;;24.05;30.17
6024;BME280;3040;42.654;23.296;2023-05-02T12:18:07;94489.06;;;24.43;29.17
6024;BME280;3040;42.654;23.296;2023-05-02T12:20:36;94480.66;;;24.73;28.25
6024;BME280;3040;42.654;23.296;2023-05-02T12:23:04;94475.25;;;24.34;29.12
6024;BME280;3040;42.654;23.296;2023-05-02T12:25:36;94487.69;;;24.35;29.30
6024;BME280;3040;42.654;23.296;2023-05-02T12:28:03;94483.91;;;23.39;29.86
6024;BME280;3040;42.654;23.296;2023-05-02T12:30:30;94471.63;;;23.78;30.40
6024;BME280;3040;42.654;23.296;2023-05-02T12:32:59;94465.88;;;24.55;28.99
6024;BME280;3040;42.654;23.296;2023-05-02T12:35:27;94469.34;;;24.95;27.70
6024;BME280;3040;42.654;23.296;2023-05-02T12:38:07;94466.38;;;24.86;28.40
6024;BME280;3040;42.654;23.296;2023-05-02T12:40:34;94434.50;;;24.70;28.85
6024;BME280;3040;42.654;23.296;2023-05-02T12:43:03;94408.34;;;24.40;28.45
6024;BME280;3040;42.654;23.296;2023-05-02T12:45:32;94461.19;;;24.95;28.05
6024;BME280;3040;42.654;23.296;2023-05-02T12:47:59;94463.81;;;24.79;28.31
6024;BME280;3040;42.654;23.296;2023-05-02T12:50:36;94459.28;;;24.36;28.66
6024;BME280;3040;42.654;23.296;2023-05-02T12:53:05;94452.69;;;24.73;28.46
6024;BME280;3040;42.654;23.296;2023-05-02T12:55:32;94457.78;;;24.71;28.38
6024;BME280;3040;42.654;23.296;2023-05-02T12:57:59;94444.72;;;24.46;29.41
6024;BME280;3040;42.654;23.296;2023-05-02T13:00:26;94439.34;;;24.79;28.75
6024;BME280;3040;42.654;23.296;2023-05-02T13:02:53;94447.94;;;25.13;28.01
6024;BME280;3040;42.654;23.296;2023-05-02T13:05:20;94446.81;;;25.27;28.16
6024;BME280;3040;42.654;23.296;2023-05-02T13:07:47;94445.59;;;25.44;26.93
6024;BME280;3040;42.654;23.296;2023-05-02T13:10:15;94418.81;;;24.94;27.31
6024;BME280;3040;42.654;23.296;2023-05-02T13:12:43;94452.66;;;25.09;28.25
6024;BME280;3040;42.654;23.296;2023-05-02T13:15:11;94447.00;;;24.84;26.91
6024;BME280;3040;42.654;23.296;2023-05-02T13:17:38;94305.09;;;24.01;27.78
6024;BME280;3040;42.654;23.296;2023-05-02T13:20:06;94451.91;;;24.72;27.57
6024;BME280;3040;42.654;23.296;2023-05-02T13:22:34;94452.75;;;24.33;28.39